sensor_id;sensor_type;location;lat;lon;timestamp;P1;durP1;ratioP1;P2;durP2;ratioP2
11957;SDS011;6039;52.576;13.348;2023-05-18T00:02:16;6.43;;;1.60;;
11957;SDS011;6039;52.576;13.348;2023-05-18T00:07:23;4.40;;;1.57;;
11957;SDS011;6039;52.576;13.348;2023-05-18T00:12:29;3.60;;;1.10;;
11957;SDS011;6039;52.576;13.348;2023-05-18T00:17:33;2.07;;;1.03;;
11957;SDS011;6039;52.576;13.348;2023-05-18T00:22:39;1.70;;;1.20;;
11957;SDS011;6039;52.576;13.348;2023-05-18T00:27:43;3.73;;;1.50;;
11957;SDS011;6039;52.576;13.348;2023-05-18T00:32:48;3.77;;;1.20;;
11957;SDS011;6039;52.576;13.348;2023-05-18T00:37:55;2.80;;;1.40;;
11957;SDS011;6039;52.576;13.348;2023-05-18T00:42:59;4.73;;;1.20;;
11957;SDS011;6039;52.576;13.348;2023-05-18T00:48:03;1.60;;;1.20;;
11957;SDS011;6039;52.576;13.348;2023-05-18T00:53:10;2.20;;;1.37;;
11957;SDS011;6039;52.576;13.348;2023-05-18T00:58:14;3.33;;;1.00;;
11957;SDS011;6039;52.576;13.348;2023-05-18T01:03:18;3.03;;;1.10;;
11957;SDS011;6039;52.576;13.348;2023-05-18T01:08:26;1.40;;;1.03;;
11957;SDS011;6039;52.576;13.348;2023-05-18T01:13:34;7.53;;;1.30;;
11957;SDS011;6039;52.576;13.348;2023-05-18T01:18:45;2.63;;;1.20;;
11957;SDS011;6039;52.576;13.348;2023-05-18T01:24:02;2.23;;;1.23;;
11957;SDS011;6039;52.576;13.348;2023-05-18T01:29:17;3.43;;;1.30;;
11957;SDS011;6039;52.576;13.348;2023-05-18T01:34:22;8.13;;;1.47;;
11957;SDS011;6039;52.576;13.348;2023-05-18T01:39:26;3.67;;;1.33;;
11957;SDS011;6039;52.576;13.348;2023-05-18T01:44:35;3.03;;;1.40;;
11957;SDS011;6039;52.576;13.348;2023-05-18T01:49:44;4.50;;;1.27;;
11957;SDS011;6039;52.576;13.348;2023-05-18T01:54:51;2.53;;;1.20;;
11957;SDS011;6039;52.576;13.348;2023-05-18T02:00:00;5.07;;;1.40;;
11957;SDS011;6039;52.576;13.348;2023-05-18T02:05:07;4.20;;;1.00;;
11957;SDS011;6039;52.576;13.348;2023-05-18T02:10:12;3.13;;;1.50;;
11957;SDS011;6039;52.576;13.348;2023-05-18T02:15:18;1.93;;;1.20;;
11957;SDS011;6039;52.576;13.348;2023-05-18T02:20:22;5.43;;;1.40;;
11957;SDS011;6039;52.576;13.348;2023-05-18T02:25:31;4.77;;;1.40;;
11957;SDS011;6039;52.576;13.348;2023-05-18T02:30:38;3.63;;;1.67;;
11957;SDS011;6039;52.576;13.348;2023-05-18T02:35:42;4.60;;;1.63;;
11957;SDS011;6039;52.576;13.348;2023-05-18T02:40:46;4.03;;;1.73;;
11957;SDS011;6039;52.576;13.348;2023-05-18T02:45:53;7.67;;;1.80;;
11957;SDS011;6039;52.576;13.348;2023-05-18T02:50:57;5.70;;;1.60;;
11957;SDS011;6039;52.576;13.348;2023-05-18T02:56:01;2.40;;;1.20;;
11957;SDS011;6039;52.576;13.348;2023-05-18T03:01:08;4.07;;;1.30;;
11957;SDS011;6039;52.576;13.348;2023-05-18T03:06:12;2.13;;;1.20;;
11957;SDS011;6039;52.576;13.348;2023-05-18T03:11:16;5.70;;;1.23;;
11957;SDS011;6039;52.576;13.348;2023-05-18T03:16:23;2.37;;;1.10;;
11957;SDS011;6039;52.576;13.348;2023-05-18T03:21:28;3.73;;;1.57;;
11957;SDS011;6039;52.576;13.348;2023-05-18T03:26:32;5.03;;;1.30;;
11957;SDS011;6039;52.576;13.348;2023-05-18T03:31:40;3.13;;;1.30;;
11957;SDS011;6039;52.576;13.348;2023-05-18T03:36:44;3.87;;;1.30;;
11957;SDS011;6039;52.576;13.348;2023-05-18T03:41:51;2.90;;;1.70;;
11957;SDS011;6039;52.576;13.348;2023-05-18T03:46:58;3.23;;;1.50;;
11957;SDS011;6039;52.576;13.348;2023-05-18T03:52:02;2.10;;;1.50;;
11957;SDS011;6039;52.576;13.348;2023-05-18T03:57:06;5.73;;;1.70;;
11957;SDS011;6039;52.576;13.348;2023-05-18T04:02:13;3.50;;;1.80;;
11957;SDS011;6039;52.576;13.348;2023-05-18T04:07:18;2.50;;;1.67;;
11957;SDS011;6039;52.576;13.348;2023-05-18T04:12:23;4.60;;;1.73;;
11957;SDS011;6039;52.576;13.348;2023-05-18T04:17:30;2.20;;;1.63;;
11957;SDS011;6039;52.576;13.348;2023-05-18T04:22:37;2.07;;;1.63;;
11957;SDS011;6039;52.576;13.348;2023-05-18T04:27:45;2.97;;;1.70;;
11957;SDS011;6039;52.576;13.348;2023-05-18T04:32:52;7.10;;;1.50;;
11957;SDS011;6039;52.576;13.348;2023-05-18T04:37:57;4.57;;;1.70;;
11957;SDS011;6039;52.576;13.348;2023-05-18T04:43:01;2.37;;;1.77;;
11957;SDS011;6039;52.576;13.348;2023-05-18T04:48:09;4.53;;;1.67;;
11957;SDS011;6039;52.576;13.348;2023-05-18T04:53:16;6.03;;;1.80;;
11957;SDS011;6039;52.576;13.348;2023-05-18T04:58:20;3.77;;;1.60;;
11957;SDS011;6039;52.576;13.348;2023-05-18T05:03:27;4.63;;;1.70;;
11957;SDS011;6039;52.576;13.348;2023-05-18T05:08:31;6.37;;;1.53;;
11957;SDS011;6039;52.576;13.348;2023-05-18T05:13:35;3.43;;;1.50;;
11957;SDS011;6039;52.576;13.348;2023-05-18T05:18:42;2.33;;;1.53;;
11957;SDS011;6039;52.576;13.348;2023-05-18T05:23:46;3.40;;;1.40;;
11957;SDS011;6039;52.576;13.348;2023-05-18T05:28:49;4.40;;;1.50;;
11957;SDS011;6039;52.576;13.348;2023-05-18T05:33:56;2.63;;;1.30;;
11957;SDS011;6039;52.576;13.348;2023-05-18T05:39:00;1.93;;;1.27;;
11957;SDS011;6039;52.576;13.348;2023-05-18T05:44:04;5.17;;;1.50;;
11957;SDS011;6039;52.576;13.348;2023-05-18T05:49:11;5.20;;;1.40;;
11957;SDS011;6039;52.576;13.348;2023-05-18T05:54:15;3.37;;;1.50;;
11957;SDS011;6039;52.576;13.348;2023-05-18T05:59:19;4.73;;;1.40;;
11957;SDS011;6039;52.576;13.348;2023-05-18T06:04:25;3.40;;;1.40;;
11957;SDS011;6039;52.576;13.348;2023-05-18T06:09:29;3.87;;;1.30;;
11957;SDS011;6039;52.576;13.348;2023-05-18T06:14:33;3.53;;;1.67;;
11957;SDS011;6039;52.576;13.348;2023-05-18T06:19:40;7.53;;;1.67;;
11957;SDS011;6039;52.576;13.348;2023-05-18T06:24:44;3.57;;;1.50;;
11957;SDS011;6039;52.576;13.348;2023-05-18T06:29:48;4.13;;;1.60;;
11957;SDS011;6039;52.576;13.348;2023-05-18T06:34:54;5.63;;;1.37;;
11957;SDS011;6039;52.576;13.348;2023-05-18T06:39:58;3.27;;;1.80;;
11957;SDS011;6039;52.576;13.348;2023-05-18T06:45:04;3.10;;;1.40;;
11957;SDS011;6039;52.576;13.348;2023-05-18T06:50:11;2.43;;;1.17;;
11957;SDS011;6039;52.576;13.348;2023-05-18T06:55:16;2.97;;;1.40;;
11957;SDS011;6039;52.576;13.348;2023-05-18T07:00:20;4.60;;;1.60;;
11957;SDS011;6039;52.576;13.348;2023-05-18T07:05:27;3.73;;;1.40;;
11957;SDS011;6039;52.576;13.348;2023-05-18T07:10:31;3.27;;;1.47;;
11957;SDS011;6039;52.576;13.348;2023-05-18T07:15:35;3.43;;;1.30;;
11957;SDS011;6039;52.576;13.348;2023-05-18T07:20:41;4.73;;;1.77;;
11957;SDS011;6039;52.576;13.348;2023-05-18T07:25:45;3.63;;;1.30;;
11957;SDS011;6039;52.576;13.348;2023-05-18T07:30:49;2.67;;;1.42;;
11957;SDS011;6039;52.576;13.348;2023-05-18T07:35:56;2.15;;;1.10;;
11957;SDS011;6039;52.576;13.348;2023-05-18T07:41:00;2.85;;;1.17;;
11957;SDS011;6039;52.576;13.348;2023-05-18T07:46:04;4.15;;;1.30;;
11957;SDS011;6039;52.576;13.348;2023-05-18T07:51:10;1.93;;;1.20;;
11957;SDS011;6039;52.576;13.348;2023-05-18T07:56:14;2.60;;;1.20;;
11957;SDS011;6039;52.576;13.348;2023-05-18T08:01:18;2.95;;;1.30;;
11957;SDS011;6039;52.576;13.348;2023-05-18T08:06:29;1.80;;;1.10;;
11957;SDS011;6039;52.576;13.348;2023-05-18T08:11:33;2.10;;;0.90;;
11957;SDS011;6039;52.576;13.348;2023-05-18T08:16:37;4.23;;;1.43;;
11957;SDS011;6039;52.576;13.348;2023-05-18T08:21:44;3.83;;;1.10;;
11957;SDS011;6039;52.576;13.348;2023-05-18T08:26:48;3.00;;;1.07;;
11957;SDS011;6039;52.576;13.348;2023-05-18T08:31:52;2.43;;;0.97;;
11957;SDS011;6039;52.576;13.348;2023-05-18T08:36:58;2.33;;;1.03;;
11957;SDS011;6039;52.576;13.348;2023-05-18T08:42:04;2.83;;;1.20;;
11957;SDS011;6039;52.576;13.348;2023-05-18T08:47:12;2.77;;;1.20;;
11957;SDS011;6039;52.576;13.348;2023-05-18T08:52:19;3.90;;;1.13;;
11957;SDS011;6039;52.576;13.348;2023-05-18T08:57:27;2.77;;;1.10;;
11957;SDS011;6039;52.576;13.348;2023-05-18T09:02:31;1.60;;;1.03;;
11957;SDS011;6039;52.576;13.348;2023-05-18T09:07:38;2.53;;;1.20;;
11957;SDS011;6039;52.576;13.348;2023-05-18T09:12:43;2.60;;;1.10;;
11957;SDS011;6039;52.576;13.348;2023-05-18T09:17:48;3.07;;;1.20;;
11957;SDS011;6039;52.576;13.348;2023-05-18T09:22:54;1.40;;;1.00;;
11957;SDS011;6039;52.576;13.348;2023-05-18T09:27:58;3.47;;;1.30;;
11957;SDS011;6039;52.576;13.348;2023-05-18T09:33:04;1.93;;;1.17;;
11957;SDS011;6039;52.576;13.348;2023-05-18T09:38:10;3.73;;;1.00;;
11957;SDS011;6039;52.576;13.348;2023-05-18T09:43:16;2.00;;;1.10;;
11957;SDS011;6039;52.576;13.348;2023-05-18T09:48:20;4.57;;;1.40;;
11957;SDS011;6039;52.576;13.348;2023-05-18T09:53:27;1.90;;;1.00;;
11957;SDS011;6039;52.576;13.348;2023-05-18T09:58:31;1.97;;;1.33;;
11957;SDS011;6039;52.576;13.348;2023-05-18T10:03:36;1.83;;;1.20;;
11957;SDS011;6039;52.576;13.348;2023-05-18T10:08:43;1.47;;;0.93;;
11957;SDS011;6039;52.576;13.348;2023-05-18T10:13:51;1.70;;;1.20;;
11957;SDS011;6039;52.576;13.348;2023-05-18T10:18:56;3.13;;;1.30;;
11957;SDS011;6039;52.576;13.348;2023-05-18T10:24:05;2.67;;;1.20;;
11957;SDS011;6039;52.576;13.348;2023-05-18T10:29:10;1.48;;;1.02;;
11957;SDS011;6039;52.576;13.348;2023-05-18T10:34:14;2.63;;;1.20;;
11957;SDS011;6039;52.576;13.348;2023-05-18T10:39:21;3.08;;;1.25;;
11957;SDS011;6039;52.576;13.348;2023-05-18T10:44:27;3.45;;;1.02;;
11957;SDS011;6039;52.576;13.348;2023-05-18T10:49:31;2.92;;;1.42;;
11957;SDS011;6039;52.576;13.348;2023-05-18T10:54:38;1.90;;;1.10;;
11957;SDS011;6039;52.576;13.348;2023-05-18T10:59:43;2.58;;;1.10;;
11957;SDS011;6039;52.576;13.348;2023-05-18T11:04:47;1.77;;;1.10;;
11957;SDS011;6039;52.576;13.348;2023-05-18T11:09:54;2.67;;;1.20;;
11957;SDS011;6039;52.576;13.348;2023-05-18T11:14:58;2.60;;;1.38;;
11957;SDS011;6039;52.576;13.348;2023-05-18T11:20:12;2.05;;;1.08;;
11957;SDS011;6039;52.576;13.348;2023-05-18T11:36:04;4.47;;;1.17;;
11957;SDS011;6039;52.576;13.348;2023-05-18T11:46:34;1.83;;;1.30;;
11957;SDS011;6039;52.576;13.348;2023-05-18T11:51:53;1.90;;;1.13;;
11957;SDS011;6039;52.576;13.348;2023-05-18T11:57:01;2.43;;;1.20;;
11957;SDS011;6039;52.576;13.348;2023-05-18T12:02:05;1.30;;;1.00;;
11957;SDS011;6039;52.576;13.348;2023-05-18T12:07:11;3.40;;;1.45;;
11957;SDS011;6039;52.576;13.348;2023-05-18T12:12:17;1.92;;;1.45;;
11957;SDS011;6039;52.576;13.348;2023-05-18T12:17:23;2.13;;;1.10;;
11957;SDS011;6039;52.576;13.348;2023-05-18T12:22:31;2.27;;;1.17;;
11957;SDS011;6039;52.576;13.348;2023-05-18T12:27:39;1.20;;;1.00;;
11957;SDS011;6039;52.576;13.348;2023-05-18T12:32:44;2.00;;;1.00;;
11957;SDS011;6039;52.576;13.348;2023-05-18T12:37:49;1.33;;;1.10;;
11957;SDS011;6039;52.576;13.348;2023-05-18T12:42:57;2.37;;;1.10;;
11957;SDS011;6039;52.576;13.348;2023-05-18T12:48:03;3.13;;;1.17;;
11957;SDS011;6039;52.576;13.348;2023-05-18T12:53:07;3.53;;;1.00;;
11957;SDS011;6039;52.576;13.348;2023-05-18T12:58:14;1.53;;;1.20;;
11957;SDS011;6039;52.576;13.348;2023-05-18T13:03:19;4.33;;;1.30;;
11957;SDS011;6039;52.576;13.348;2023-05-18T13:08:23;2.10;;;1.27;;
11957;SDS011;6039;52.576;13.348;2023-05-18T13:13:29;1.60;;;1.07;;
11957;SDS011;6039;52.576;13.348;2023-05-18T13:18:33;3.40;;;1.10;;
11957;SDS011;6039;52.576;13.348;2023-05-18T13:23:37;2.93;;;1.40;;
11957;SDS011;6039;52.576;13.348;2023-05-18T13:28:45;1.40;;;0.87;;
11957;SDS011;6039;52.576;13.348;2023-05-18T13:33:52;2.43;;;1.10;;
11957;SDS011;6039;52.576;13.348;2023-05-18T13:38:56;3.10;;;1.30;;
11957;SDS011;6039;52.576;13.348;2023-05-18T13:44:03;2.00;;;1.37;;
11957;SDS011;6039;52.576;13.348;2023-05-18T13:49:07;2.57;;;1.30;;
11957;SDS011;6039;52.576;13.348;2023-05-18T13:54:11;2.00;;;1.07;;
11957;SDS011;6039;52.576;13.348;2023-05-18T13:59:18;1.43;;;0.87;;
11957;SDS011;6039;52.576;13.348;2023-05-18T14:04:22;2.93;;;1.70;;
11957;SDS011;6039;52.576;13.348;2023-05-18T14:09:26;1.07;;;0.97;;
11957;SDS011;6039;52.576;13.348;2023-05-18T14:14:32;1.63;;;1.03;;
11957;SDS011;6039;52.576;13.348;2023-05-18T14:19:36;1.87;;;1.40;;
11957;SDS011;6039;52.576;13.348;2023-05-18T14:24:40;2.90;;;1.50;;
11957;SDS011;6039;52.576;13.348;2023-05-18T14:29:47;1.93;;;1.27;;
11957;SDS011;6039;52.576;13.348;2023-05-18T14:34:51;2.27;;;1.40;;
11957;SDS011;6039;52.576;13.348;2023-05-18T14:39:56;4.83;;;1.43;;
11957;SDS011;6039;52.576;13.348;2023-05-18T14:45:03;1.90;;;1.40;;
11957;SDS011;6039;52.576;13.348;2023-05-18T14:50:08;4.10;;;1.47;;
11957;SDS011;6039;52.576;13.348;2023-05-18T14:55:12;2.93;;;1.60;;
11957;SDS011;6039;52.576;13.348;2023-05-18T15:00:19;4.43;;;1.77;;
11957;SDS011;6039;52.576;13.348;2023-05-18T15:05:23;2.50;;;1.80;;
11957;SDS011;6039;52.576;13.348;2023-05-18T15:10:27;3.40;;;1.90;;
11957;SDS011;6039;52.576;13.348;2023-05-18T15:15:34;1.73;;;1.23;;
11957;SDS011;6039;52.576;13.348;2023-05-18T15:20:38;2.03;;;1.63;;
11957;SDS011;6039;52.576;13.348;2023-05-18T15:25:44;2.23;;;1.53;;
11957;SDS011;6039;52.576;13.348;2023-05-18T15:30:50;4.47;;;1.50;;
11957;SDS011;6039;52.576;13.348;2023-05-18T15:35:55;2.20;;;1.47;;
11957;SDS011;6039;52.576;13.348;2023-05-18T15:40:58;1.83;;;1.43;;
11957;SDS011;6039;52.576;13.348;2023-05-18T15:46:05;2.40;;;1.80;;
11957;SDS011;6039;52.576;13.348;2023-05-18T15:51:09;3.60;;;1.60;;
11957;SDS011;6039;52.576;13.348;2023-05-18T15:56:13;5.37;;;1.77;;
11957;SDS011;6039;52.576;13.348;2023-05-18T16:01:20;1.97;;;1.70;;
11957;SDS011;6039;52.576;13.348;2023-05-18T16:06:24;3.23;;;1.70;;
11957;SDS011;6039;52.576;13.348;2023-05-18T16:11:29;1.67;;;1.23;;
11957;SDS011;6039;52.576;13.348;2023-05-18T16:16:37;3.37;;;1.20;;
11957;SDS011;6039;52.576;13.348;2023-05-18T16:21:41;2.17;;;1.50;;
11957;SDS011;6039;52.576;13.348;2023-05-18T16:26:45;2.73;;;1.60;;
11957;SDS011;6039;52.576;13.348;2023-05-18T16:31:51;3.13;;;1.43;;
11957;SDS011;6039;52.576;13.348;2023-05-18T16:36:55;2.03;;;1.20;;
11957;SDS011;6039;52.576;13.348;2023-05-18T16:41:59;1.93;;;1.30;;
11957;SDS011;6039;52.576;13.348;2023-05-18T16:47:06;3.33;;;1.23;;
11957;SDS011;6039;52.576;13.348;2023-05-18T16:52:10;1.47;;;1.23;;
11957;SDS011;6039;52.576;13.348;2023-05-18T16:57:14;2.97;;;1.50;;
11957;SDS011;6039;52.576;13.348;2023-05-18T17:02:21;2.37;;;1.40;;
11957;SDS011;6039;52.576;13.348;2023-05-18T17:07:25;3.47;;;1.63;;
11957;SDS011;6039;52.576;13.348;2023-05-18T17:12:29;1.50;;;1.27;;
11957;SDS011;6039;52.576;13.348;2023-05-18T17:17:37;2.43;;;1.10;;
11957;SDS011;6039;52.576;13.348;2023-05-18T17:22:42;2.53;;;1.60;;
11957;SDS011;6039;52.576;13.348;2023-05-18T17:27:46;3.00;;;1.40;;
11957;SDS011;6039;52.576;13.348;2023-05-18T17:32:52;2.50;;;1.40;;
11957;SDS011;6039;52.576;13.348;2023-05-18T17:37:56;2.70;;;1.70;;
11957;SDS011;6039;52.576;13.348;2023-05-18T17:43:00;3.47;;;1.87;;
11957;SDS011;6039;52.576;13.348;2023-05-18T17:48:07;2.37;;;1.50;;
11957;SDS011;6039;52.576;13.348;2023-05-18T17:53:11;3.30;;;1.60;;
11957;SDS011;6039;52.576;13.348;2023-05-18T17:58:16;3.37;;;2.07;;
11957;SDS011;6039;52.576;13.348;2023-05-18T18:03:22;3.37;;;1.70;;
11957;SDS011;6039;52.576;13.348;2023-05-18T18:08:26;3.33;;;1.90;;
11957;SDS011;6039;52.576;13.348;2023-05-18T18:13:30;3.43;;;2.00;;
11957;SDS011;6039;52.576;13.348;2023-05-18T18:18:37;3.03;;;1.83;;
11957;SDS011;6039;52.576;13.348;2023-05-18T18:23:41;2.30;;;1.70;;
11957;SDS011;6039;52.576;13.348;2023-05-18T18:28:45;2.20;;;1.60;;
11957;SDS011;6039;52.576;13.348;2023-05-18T18:33:52;1.83;;;1.40;;
11957;SDS011;6039;52.576;13.348;2023-05-18T18:38:56;4.20;;;1.70;;
11957;SDS011;6039;52.576;13.348;2023-05-18T18:44:00;2.10;;;1.50;;
11957;SDS011;6039;52.576;13.348;2023-05-18T18:49:07;2.23;;;1.40;;
11957;SDS011;6039;52.576;13.348;2023-05-18T18:54:11;3.10;;;1.40;;
11957;SDS011;6039;52.576;13.348;2023-05-18T18:59:15;3.40;;;1.60;;
11957;SDS011;6039;52.576;13.348;2023-05-18T19:04:21;4.20;;;2.03;;
11957;SDS011;6039;52.576;13.348;2023-05-18T19:09:25;2.37;;;1.60;;
11957;SDS011;6039;52.576;13.348;2023-05-18T19:14:33;1.90;;;1.33;;
11957;SDS011;6039;52.576;13.348;2023-05-18T19:19:40;2.10;;;1.60;;
11957;SDS011;6039;52.576;13.348;2023-05-18T19:24:44;2.77;;;2.07;;
11957;SDS011;6039;52.576;13.348;2023-05-18T19:29:48;6.97;;;1.90;;
11957;SDS011;6039;52.576;13.348;2023-05-18T19:34:54;3.33;;;1.70;;
11957;SDS011;6039;52.576;13.348;2023-05-18T19:39:58;4.13;;;1.80;;
11957;SDS011;6039;52.576;13.348;2023-05-18T19:45:04;4.00;;;2.17;;
11957;SDS011;6039;52.576;13.348;2023-05-18T19:50:11;3.67;;;2.10;;
11957;SDS011;6039;52.576;13.348;2023-05-18T19:55:15;4.53;;;2.10;;
11957;SDS011;6039;52.576;13.348;2023-05-18T20:00:20;5.30;;;2.10;;
11957;SDS011;6039;52.576;13.348;2023-05-18T20:05:27;3.40;;;2.23;;
11957;SDS011;6039;52.576;13.348;2023-05-18T20:10:31;5.47;;;2.53;;
11957;SDS011;6039;52.576;13.348;2023-05-18T20:15:35;3.90;;;1.80;;
11957;SDS011;6039;52.576;13.348;2023-05-18T20:20:41;3.63;;;1.93;;
11957;SDS011;6039;52.576;13.348;2023-05-18T20:25:46;3.77;;;1.63;;
11957;SDS011;6039;52.576;13.348;2023-05-18T20:30:50;3.23;;;1.80;;
11957;SDS011;6039;52.576;13.348;2023-05-18T20:35:56;3.97;;;1.77;;
11957;SDS011;6039;52.576;13.348;2023-05-18T20:41:01;5.07;;;1.83;;
11957;SDS011;6039;52.576;13.348;2023-05-18T20:46:07;3.80;;;1.70;;
11957;SDS011;6039;52.576;13.348;2023-05-18T20:51:15;2.57;;;1.77;;
11957;SDS011;6039;52.576;13.348;2023-05-18T20:56:22;2.83;;;1.57;;
11957;SDS011;6039;52.576;13.348;2023-05-18T21:01:28;2.73;;;1.80;;
11957;SDS011;6039;52.576;13.348;2023-05-18T21:06:40;5.10;;;2.20;;
11957;SDS011;6039;52.576;13.348;2023-05-18T21:11:44;6.40;;;1.93;;
11957;SDS011;6039;52.576;13.348;2023-05-18T21:16:48;3.90;;;1.60;;
11957;SDS011;6039;52.576;13.348;2023-05-18T21:21:54;7.73;;;2.10;;
11957;SDS011;6039;52.576;13.348;2023-05-18T21:26:58;4.87;;;1.90;;
11957;SDS011;6039;52.576;13.348;2023-05-18T21:32:02;3.73;;;1.80;;
11957;SDS011;6039;52.576;13.348;2023-05-18T21:37:09;3.63;;;1.80;;
11957;SDS011;6039;52.576;13.348;2023-05-18T21:42:13;4.80;;;1.87;;
11957;SDS011;6039;52.576;13.348;2023-05-18T21:47:17;5.70;;;1.90;;
11957;SDS011;6039;52.576;13.348;2023-05-18T21:52:24;3.67;;;1.73;;
11957;SDS011;6039;52.576;13.348;2023-05-18T21:57:28;4.90;;;1.77;;
11957;SDS011;6039;52.576;13.348;2023-05-18T22:02:34;4.53;;;1.80;;
11957;SDS011;6039;52.576;13.348;2023-05-18T22:07:41;5.00;;;2.20;;
11957;SDS011;6039;52.576;13.348;2023-05-18T22:12:45;4.60;;;1.83;;
11957;SDS011;6039;52.576;13.348;2023-05-18T22:17:49;3.33;;;1.53;;
11957;SDS011;6039;52.576;13.348;2023-05-18T22:22:55;2.90;;;1.60;;
11957;SDS011;6039;52.576;13.348;2023-05-18T22:28:00;6.97;;;1.60;;
11957;SDS011;6039;52.576;13.348;2023-05-18T22:33:04;1.63;;;1.43;;
11957;SDS011;6039;52.576;13.348;2023-05-18T22:38:10;3.00;;;1.60;;
11957;SDS011;6039;52.576;13.348;2023-05-18T22:43:15;4.20;;;1.57;;
11957;SDS011;6039;52.576;13.348;2023-05-18T22:48:19;4.13;;;1.87;;
11957;SDS011;6039;52.576;13.348;2023-05-18T22:53:26;2.90;;;1.70;;
11957;SDS011;6039;52.576;13.348;2023-05-18T22:58:30;3.47;;;1.70;;
11957;SDS011;6039;52.576;13.348;2023-05-18T23:03:34;3.87;;;1.67;;
11957;SDS011;6039;52.576;13.348;2023-05-18T23:08:41;3.60;;;1.80;;
11957;SDS011;6039;52.576;13.348;2023-05-18T23:13:45;3.20;;;1.50;;
11957;SDS011;6039;52.576;13.348;2023-05-18T23:18:50;2.57;;;1.50;;
11957;SDS011;6039;52.576;13.348;2023-05-18T23:24:00;2.70;;;1.50;;
11957;SDS011;6039;52.576;13.348;2023-05-18T23:29:05;2.67;;;1.60;;
11957;SDS011;6039;52.576;13.348;2023-05-18T23:34:09;2.70;;;1.50;;
11957;SDS011;6039;52.576;13.348;2023-05-18T23:39:16;3.50;;;1.87;;
11957;SDS011;6039;52.576;13.348;2023-05-18T23:44:20;2.67;;;1.40;;
11957;SDS011;6039;52.576;13.348;2023-05-18T23:49:25;2.50;;;1.60;;
11957;SDS011;6039;52.576;13.348;2023-05-18T23:54:33;4.60;;;2.00;;
11957;SDS011;6039;52.576;13.348;2023-05-18T23:59:37;3.03;;;1.40;;
